Time;durP1;ratioP1;P1;durP2;ratioP2;P2;SDS_P1;SDS_P2;PMS_P1;PMS_P2;Temp;Humidity;BMP_temperature;BMP_pressure;BME280_temperature;BME280_humidity;BME280_pressure;Samples;Min_cycle;Max_cycle;Signal;HPM_P1;HPM_P2
2023/09/27 00:00:08;;;;;;;1.85;1.20;;;20.40;99.90;;;;;;5032023;28;20078;-40
2023/09/27 00:02:34;;;;;;;1.85;1.35;;;20.40;99.90;;;;;;5032259;28;20406;-40
2023/09/27 00:05:00;;;;;;;1.60;1.30;;;20.40;99.90;;;;;;5032020;28;20108;-35
2023/09/27 00:07:26;;;;;;;1.20;0.98;;;20.40;99.90;;;;;;5031891;28;20025;-37
2023/09/27 00:09:52;;;;;;;2.70;1.30;;;20.40;99.90;;;;;;5031972;28;20022;-37
2023/09/27 00:12:18;;;;;;;2.10;1.25;;;20.40;99.90;;;;;;5031862;28;20111;-37
2023/09/27 00:14:44;;;;;;;2.40;1.45;;;20.40;99.90;;;;;;5031803;28;20486;-41
2023/09/27 00:17:11;;;;;;;1.80;1.42;;;20.40;99.90;;;;;;5031736;28;20445;-35
2023/09/27 00:19:36;;;;;;;2.25;1.25;;;20.40;99.90;;;;;;5031762;28;20053;-36
2023/09/27 00:22:02;;;;;;;1.80;1.20;;;20.40;99.90;;;;;;5031722;28;20052;-36
2023/09/27 00:24:28;;;;;;;1.88;1.00;;;20.40;99.90;;;;;;5014005;28;20032;-34
2023/09/27 00:26:54;;;;;;;3.25;1.38;;;20.40;99.90;;;;;;5031510;28;20064;-36
2023/09/27 00:29:20;;;;;;;1.63;1.20;;;20.40;99.90;;;;;;5031718;28;20030;-37
2023/09/27 00:31:46;;;;;;;3.20;1.33;;;20.40;99.90;;;;;;5031697;28;20059;-42
2023/09/27 00:34:11;;;;;;;2.03;1.30;;;20.40;99.90;;;;;;5031623;28;20688;-36
2023/09/27 00:36:37;;;;;;;2.58;1.10;;;20.40;99.90;;;;;;5031389;28;20075;-34
2023/09/27 00:39:03;;;;;;;2.47;1.40;;;20.40;99.90;;;;;;5013710;28;20029;-39
2023/09/27 00:41:29;;;;;;;2.45;1.50;;;20.40;99.90;;;;;;5031355;28;20041;-39
2023/09/27 00:43:55;;;;;;;2.38;1.27;;;20.40;99.90;;;;;;5032568;28;20029;-40
2023/09/27 00:46:22;;;;;;;1.90;1.00;;;20.40;99.90;;;;;;5032373;28;20029;-40
2023/09/27 00:48:48;;;;;;;1.30;0.90;;;20.40;99.90;;;;;;5031609;28;20398;-35
2023/09/27 00:51:14;;;;;;;2.20;1.17;;;20.30;99.90;;;;;;5030837;28;20041;-35
2023/09/27 00:53:41;;;;;;;1.55;1.17;;;20.40;99.90;;;;;;5031793;28;20029;-35
2023/09/27 00:56:08;;;;;;;2.30;1.20;;;20.30;99.90;;;;;;5032054;28;20108;-37
2023/09/27 00:58:34;;;;;;;2.88;1.27;;;20.30;99.90;;;;;;5034541;28;20037;-36
2023/09/27 01:01:00;;;;;;;1.60;1.27;;;20.30;99.90;;;;;;5032718;28;20018;-36
2023/09/27 01:03:26;;;;;;;2.60;1.80;;;20.30;99.90;;;;;;5031457;28;20175;-36
2023/09/27 01:05:53;;;;;;;1.88;1.20;;;20.30;99.90;;;;;;5031054;28;20052;-37
2023/09/27 01:08:18;;;;;;;2.15;1.15;;;20.30;99.90;;;;;;5031237;28;20030;-36
2023/09/27 01:10:45;;;;;;;2.28;1.55;;;20.30;99.90;;;;;;5031414;28;20023;-37
2023/09/27 01:13:12;;;;;;;2.05;1.27;;;20.30;99.90;;;;;;5031192;28;20037;-38
2023/09/27 01:15:38;;;;;;;1.83;1.20;;;20.30;99.90;;;;;;5030812;28;20022;-38
2023/09/27 01:18:03;;;;;;;1.98;1.20;;;20.30;99.90;;;;;;5031345;28;20044;-36
2023/09/27 01:20:32;;;;;;;2.78;1.20;;;20.30;99.90;;;;;;5031036;28;20544;-39
2023/09/27 01:23:03;;;;;;;1.92;1.27;;;20.30;99.90;;;;;;5031051;28;20014;-37
2023/09/27 01:25:30;;;;;;;2.75;1.30;;;20.30;99.90;;;;;;5030758;28;20502;-37
2023/09/27 01:28:00;;;;;;;2.35;1.60;;;20.30;99.90;;;;;;5031050;28;20135;-36
2023/09/27 01:30:32;;;;;;;2.38;1.40;;;20.30;99.90;;;;;;5031022;28;20022;-34
2023/09/27 01:33:00;;;;;;;2.92;1.42;;;20.30;99.90;;;;;;5031382;28;20025;-38
2023/09/27 01:35:25;;;;;;;2.13;1.23;;;20.30;99.90;;;;;;5030831;28;20022;-38
2023/09/27 01:37:51;;;;;;;2.08;1.50;;;20.30;99.90;;;;;;5030757;28;20025;-36
2023/09/27 01:40:18;;;;;;;1.65;1.27;;;20.30;99.90;;;;;;5030944;28;20096;-36
2023/09/27 01:42:44;;;;;;;2.13;1.27;;;20.30;99.90;;;;;;5030949;28;20021;-37
2023/09/27 01:45:13;;;;;;;3.95;1.35;;;20.30;99.90;;;;;;5030533;28;20501;-34
2023/09/27 01:47:39;;;;;;;2.08;1.50;;;20.30;99.90;;;;;;5031487;28;20530;-37
2023/09/27 01:50:07;;;;;;;1.70;1.15;;;20.30;99.90;;;;;;5013127;28;20030;-36
2023/09/27 01:52:33;;;;;;;2.80;1.20;;;20.30;99.90;;;;;;5030692;28;20036;-38
2023/09/27 01:54:59;;;;;;;1.75;1.10;;;20.30;99.90;;;;;;5030652;28;20105;-38
2023/09/27 01:57:24;;;;;;;3.38;1.55;;;20.30;99.90;;;;;;5030731;28;20021;-37
2023/09/27 01:59:50;;;;;;;2.30;1.27;;;20.30;99.90;;;;;;5030640;28;20367;-42
2023/09/27 02:02:16;;;;;;;1.77;1.40;;;20.20;99.90;;;;;;5013297;28;20029;-34
2023/09/27 02:04:41;;;;;;;4.07;1.60;;;20.20;99.90;;;;;;5034838;28;20117;-36
2023/09/27 02:07:07;;;;;;;2.05;1.30;;;20.20;99.90;;;;;;5034079;28;20036;-37
2023/09/27 02:09:33;;;;;;;2.63;1.55;;;20.20;99.90;;;;;;5034268;28;20410;-36
2023/09/27 02:11:58;;;;;;;1.52;1.42;;;20.20;99.90;;;;;;5034522;28;20022;-34
2023/09/27 02:14:24;;;;;;;1.80;1.10;;;20.20;99.90;;;;;;5034115;28;20063;-38
2023/09/27 02:16:49;;;;;;;2.38;1.40;;;20.20;99.90;;;;;;5033931;28;20049;-36
2023/09/27 02:19:15;;;;;;;1.77;1.30;;;20.20;99.90;;;;;;5034008;28;20029;-36
2023/09/27 02:21:40;;;;;;;1.23;1.02;;;20.20;99.90;;;;;;5033877;28;20555;-35
2023/09/27 02:24:07;;;;;;;1.60;1.30;;;20.20;99.90;;;;;;5033979;28;20076;-38
2023/09/27 02:26:33;;;;;;;2.55;1.42;;;20.20;99.90;;;;;;5033694;28;20044;-38
2023/09/27 02:29:00;;;;;;;2.45;1.02;;;20.20;99.90;;;;;;5033892;28;20486;-34
2023/09/27 02:31:25;;;;;;;3.13;1.65;;;20.20;99.90;;;;;;5033907;28;20049;-37
2023/09/27 02:33:51;;;;;;;2.63;1.40;;;20.20;99.90;;;;;;5033828;28;20041;-41
2023/09/27 02:36:17;;;;;;;2.60;1.55;;;20.20;99.90;;;;;;5033435;28;20344;-43
2023/09/27 02:38:43;;;;;;;2.30;1.38;;;20.20;99.90;;;;;;5033663;28;20036;-36
2023/09/27 02:41:08;;;;;;;1.98;1.30;;;20.20;99.90;;;;;;5033659;28;20030;-36
2023/09/27 02:43:34;;;;;;;2.20;1.30;;;20.20;99.90;;;;;;5033643;28;20026;-37
2023/09/27 02:46:00;;;;;;;2.22;1.40;;;20.20;99.90;;;;;;5033256;28;20552;-35
2023/09/27 02:48:25;;;;;;;1.92;1.17;;;20.20;99.90;;;;;;5015789;28;20029;-38
2023/09/27 02:50:55;;;;;;;1.70;1.20;;;20.20;99.90;;;;;;5033436;28;20375;-36
2023/09/27 02:53:21;;;;;;;3.22;1.38;;;20.10;99.90;;;;;;5033578;28;20394;-40
2023/09/27 02:55:46;;;;;;;1.45;1.13;;;20.20;99.90;;;;;;5033190;28;20029;-34
2023/09/27 02:58:12;;;;;;;2.42;1.30;;;20.20;99.90;;;;;;5033376;28;20044;-37
2023/09/27 03:00:38;;;;;;;2.22;1.42;;;20.20;99.90;;;;;;5033261;28;20032;-36
2023/09/27 03:03:03;;;;;;;2.75;1.30;;;20.10;99.90;;;;;;5033230;28;20091;-34
2023/09/27 03:05:35;;;;;;;1.73;1.20;;;20.10;99.90;;;;;;5032843;28;20017;-38
2023/09/27 03:08:00;;;;;;;3.10;1.20;;;20.10;99.90;;;;;;5033179;28;20022;-38
2023/09/27 03:10:26;;;;;;;1.42;1.13;;;20.10;99.90;;;;;;5033219;28;20028;-40
2023/09/27 03:12:54;;;;;;;1.83;1.30;;;20.10;99.90;;;;;;5033080;28;20391;-34
2023/09/27 03:15:19;;;;;;;1.50;1.30;;;20.10;99.80;;;;;;5031963;28;20026;-38
2023/09/27 03:17:48;;;;;;;2.03;1.10;;;20.10;99.80;;;;;;5032726;28;20022;-37
2023/09/27 03:20:16;;;;;;;1.85;1.38;;;20.10;99.90;;;;;;5033084;28;20049;-37
2023/09/27 03:22:49;;;;;;;2.33;1.23;;;20.10;99.90;;;;;;5032872;28;20044;-36
2023/09/27 03:25:17;;;;;;;1.50;1.20;;;20.00;99.80;;;;;;5032677;28;20096;-36
2023/09/27 03:27:43;;;;;;;2.38;1.48;;;20.10;99.90;;;;;;5032764;28;20277;-41
2023/09/27 03:30:10;;;;;;;2.22;1.38;;;20.10;99.90;;;;;;5032670;28;20495;-42
2023/09/27 03:32:36;;;;;;;1.50;1.30;;;20.00;99.90;;;;;;5032684;28;20105;-35
2023/09/27 03:35:02;;;;;;;2.47;1.42;;;20.00;99.80;;;;;;5032567;28;20485;-38
2023/09/27 03:37:27;;;;;;;2.85;1.33;;;20.10;99.90;;;;;;5032477;28;20024;-37
2023/09/27 03:39:53;;;;;;;1.70;1.17;;;20.10;99.90;;;;;;5032485;28;20391;-41
2023/09/27 03:42:20;;;;;;;2.05;1.30;;;20.10;99.90;;;;;;5032734;28;20139;-44
2023/09/27 03:44:47;;;;;;;3.90;1.13;;;20.10;99.90;;;;;;5032192;28;20021;-40
2023/09/27 03:47:12;;;;;;;2.30;1.25;;;20.00;99.80;;;;;;5032758;28;20170;-35
2023/09/27 03:49:40;;;;;;;2.65;1.50;;;20.00;99.80;;;;;;5032378;28;20101;-35
2023/09/27 03:52:09;;;;;;;1.98;1.20;;;20.00;99.70;;;;;;5032673;28;20388;-39
2023/09/27 03:54:35;;;;;;;1.65;1.30;;;20.00;99.80;;;;;;5032353;28;20543;-44
2023/09/27 03:57:01;;;;;;;1.70;1.15;;;20.00;99.80;;;;;;5032136;28;20060;-39
2023/09/27 03:59:26;;;;;;;1.88;1.30;;;20.00;99.80;;;;;;5032033;28;20382;-40
2023/09/27 04:01:52;;;;;;;2.33;1.42;;;20.00;99.80;;;;;;5032169;28;20034;-37
2023/09/27 04:04:18;;;;;;;1.70;1.10;;;20.00;99.70;;;;;;5032092;28;20049;-37
2023/09/27 04:06:44;;;;;;;1.77;1.20;;;20.00;99.70;;;;;;5031847;28;20442;-38
2023/09/27 04:09:10;;;;;;;2.13;1.33;;;20.00;99.70;;;;;;5032439;28;20040;-41
2023/09/27 04:11:36;;;;;;;1.50;1.13;;;20.00;99.70;;;;;;5032366;28;20025;-39
2023/09/27 04:14:05;;;;;;;2.22;1.40;;;20.00;99.70;;;;;;5031764;28;20029;-39
2023/09/27 04:16:32;;;;;;;2.50;1.38;;;20.00;99.70;;;;;;5031886;28;20108;-34
2023/09/27 04:18:58;;;;;;;1.70;1.30;;;20.00;99.70;;;;;;5031871;28;20029;-36
2023/09/27 04:21:25;;;;;;;1.70;1.30;;;19.90;99.90;;;;;;5031896;28;20021;-35
2023/09/27 04:23:59;;;;;;;3.15;1.35;;;20.00;99.70;;;;;;5031863;28;20013;-38
2023/09/27 04:26:26;;;;;;;1.48;1.20;;;20.00;99.60;;;;;;5031359;28;20479;-35
2023/09/27 04:28:52;;;;;;;3.40;1.20;;;20.00;99.60;;;;;;5031646;28;20061;-45
2023/09/27 04:31:19;;;;;;;2.58;1.33;;;19.90;99.60;;;;;;5031713;28;20030;-42
2023/09/27 04:33:45;;;;;;;1.92;1.20;;;20.00;99.60;;;;;;5031645;28;20025;-38
2023/09/27 04:36:15;;;;;;;1.85;1.40;;;19.90;99.60;;;;;;5031432;28;20082;-41
2023/09/27 04:38:42;;;;;;;1.58;1.20;;;19.90;99.60;;;;;;5031542;28;20033;-38
2023/09/27 04:41:08;;;;;;;2.45;1.17;;;19.90;99.60;;;;;;5031370;28;20033;-40
2023/09/27 04:43:34;;;;;;;5.60;1.70;;;19.90;99.50;;;;;;5032040;28;20048;-37
2023/09/27 04:46:00;;;;;;;3.08;1.58;;;19.20;97.30;;;;;;5032000;28;20056;-38
2023/09/27 04:48:25;;;;;;;4.75;1.35;;;19.10;97.70;;;;;;5032702;28;20022;-35
2023/09/27 04:50:51;;;;;;;2.63;1.30;;;18.40;98.90;;;;;;5013957;28;20548;-36
2023/09/27 04:53:17;;;;;;;2.95;1.40;;;18.20;99.40;;;;;;5031383;28;20026;-41
2023/09/27 04:55:42;;;;;;;1.90;1.35;;;18.30;99.60;;;;;;5013348;28;20033;-35
2023/09/27 04:58:08;;;;;;;3.45;1.27;;;18.40;99.60;;;;;;5031254;28;20029;-39
2023/09/27 05:00:33;;;;;;;2.50;1.50;;;18.60;99.60;;;;;;5031254;28;20105;-39
2023/09/27 05:02:59;;;;;;;5.70;1.45;;;18.70;99.60;;;;;;5031345;28;20025;-39
2023/09/27 05:05:25;;;;;;;2.08;1.30;;;18.80;99.50;;;;;;5031037;28;20025;-40
2023/09/27 05:07:50;;;;;;;3.33;1.60;;;18.80;99.40;;;;;;5031137;28;20071;-39
2023/09/27 05:10:16;;;;;;;1.90;1.27;;;18.90;99.40;;;;;;5013394;28;20509;-40
2023/09/27 05:12:42;;;;;;;2.33;1.33;;;19.00;99.40;;;;;;5031178;28;20029;-39
2023/09/27 05:15:09;;;;;;;2.33;1.42;;;19.00;99.30;;;;;;5031006;28;20028;-40
2023/09/27 05:17:35;;;;;;;2.25;1.42;;;19.10;99.30;;;;;;5031080;28;20028;-42
2023/09/27 05:20:06;;;;;;;5.05;1.50;;;19.10;99.20;;;;;;5031077;28;20091;-39
2023/09/27 05:22:31;;;;;;;1.98;1.40;;;19.10;99.20;;;;;;5031267;28;20052;-38
2023/09/27 05:24:57;;;;;;;3.30;0.98;;;19.20;99.20;;;;;;5030859;28;20049;-35
2023/09/27 05:27:23;;;;;;;4.30;1.50;;;19.20;99.20;;;;;;5031086;28;20459;-38
2023/09/27 05:29:49;;;;;;;2.15;1.40;;;19.20;99.20;;;;;;5031066;28;20383;-35
2023/09/27 05:32:14;;;;;;;2.45;1.27;;;19.20;99.20;;;;;;5031085;28;20029;-36
2023/09/27 05:34:40;;;;;;;2.75;1.20;;;19.20;99.10;;;;;;5030947;28;20100;-38
2023/09/27 05:37:06;;;;;;;2.80;1.30;;;19.30;99.20;;;;;;5031004;28;20037;-36
2023/09/27 05:39:31;;;;;;;3.28;1.58;;;19.30;99.10;;;;;;5034716;28;20490;-38
2023/09/27 05:41:57;;;;;;;4.78;1.55;;;19.30;99.10;;;;;;5034785;28;20426;-38
2023/09/27 05:44:23;;;;;;;1.75;1.30;;;19.30;99.10;;;;;;5034702;28;20490;-38
2023/09/27 05:46:48;;;;;;;2.88;1.50;;;19.30;99.10;;;;;;5034355;28;20498;-38
2023/09/27 05:49:15;;;;;;;1.80;1.42;;;19.30;99.10;;;;;;5034688;28;20026;-38
2023/09/27 05:51:41;;;;;;;2.63;1.35;;;19.30;99.10;;;;;;5034632;28;20098;-39
2023/09/27 05:54:07;;;;;;;2.45;1.20;;;19.30;99.10;;;;;;5034581;28;20026;-40
2023/09/27 05:56:33;;;;;;;1.80;1.40;;;19.30;99.10;;;;;;5034345;28;20391;-39
2023/09/27 05:58:59;;;;;;;2.40;1.10;;;19.30;99.10;;;;;;5034376;28;20390;-40
2023/09/27 06:01:25;;;;;;;2.40;1.20;;;19.40;99.10;;;;;;5034472;28;20393;-39
2023/09/27 06:03:51;;;;;;;7.85;1.13;;;19.40;99.10;;;;;;5034348;28;20442;-40
2023/09/27 06:06:16;;;;;;;2.22;1.30;;;19.40;99.10;;;;;;5034317;28;20056;-36
2023/09/27 06:08:42;;;;;;;3.75;1.70;;;19.40;99.10;;;;;;5034243;28;20108;-38
2023/09/27 06:11:09;;;;;;;2.40;1.30;;;19.40;99.50;;;;;;5034233;28;20048;-40
2023/09/27 06:13:36;;;;;;;3.15;1.48;;;19.40;99.10;;;;;;5034561;28;20038;-38
2023/09/27 06:16:02;;;;;;;1.92;1.10;;;19.40;99.10;;;;;;5033932;28;20032;-39
2023/09/27 06:18:28;;;;;;;2.20;1.17;;;19.40;99.10;;;;;;5033996;28;20084;-38
2023/09/27 06:20:53;;;;;;;1.60;1.30;;;19.50;99.10;;;;;;5034060;28;20041;-39
2023/09/27 06:23:19;;;;;;;1.75;1.40;;;19.50;99.10;;;;;;5033979;28;20064;-39
2023/09/27 06:25:46;;;;;;;2.78;1.50;;;19.50;99.10;;;;;;5033622;28;20014;-39
2023/09/27 06:28:13;;;;;;;1.95;1.30;;;19.50;99.10;;;;;;5033945;28;20029;-39
2023/09/27 06:30:42;;;;;;;4.38;1.52;;;19.50;99.10;;;;;;5033882;28;20070;-41
2023/09/27 06:33:09;;;;;;;4.38;1.48;;;19.30;98.30;;;;;;5033872;28;20060;-41
2023/09/27 06:35:36;;;;;;;2.60;1.52;;;18.50;99.20;;;;;;5033577;28;20064;-39
2023/09/27 06:38:02;;;;;;;2.17;1.30;;;18.20;99.90;;;;;;5034185;28;20037;-46
2023/09/27 06:40:29;;;;;;;2.13;1.40;;;18.10;99.90;;;;;;5033667;28;20025;-39
2023/09/27 06:42:55;;;;;;;6.65;1.52;;;18.10;99.90;;;;;;5033783;28;20021;-39
2023/09/27 06:45:22;;;;;;;3.58;1.60;;;18.10;99.90;;;;;;5033381;28;20029;-41
2023/09/27 06:47:48;;;;;;;3.33;1.30;;;18.20;99.90;;;;;;5033968;28;20018;-39
2023/09/27 06:50:16;;;;;;;3.20;1.45;;;18.20;99.90;;;;;;5032487;28;20026;-38
2023/09/27 06:52:45;;;;;;;4.45;1.48;;;18.20;99.90;;;;;;5033794;28;20160;-37
2023/09/27 06:55:11;;;;;;;2.40;1.38;;;18.30;99.90;;;;;;5033850;28;20144;-37
2023/09/27 06:57:40;;;;;;;3.33;1.38;;;18.30;99.90;;;;;;5033805;28;20048;-40
2023/09/27 07:00:18;;;;;;;4.32;1.55;;;18.40;99.90;;;;;;5033344;28;20171;-38
2023/09/27 07:02:46;;;;;;;3.08;1.40;;;18.40;99.90;;;;;;5033326;28;20045;-39
2023/09/27 07:05:11;;;;;;;1.65;1.25;;;18.50;99.90;;;;;;5033295;28;20425;-40
2023/09/27 07:07:38;;;;;;;2.92;1.25;;;18.50;99.90;;;;;;5033219;28;20021;-39
2023/09/27 07:10:04;;;;;;;3.50;1.60;;;18.50;99.90;;;;;;5033195;28;20448;-35
2023/09/27 07:12:30;;;;;;;4.20;1.50;;;18.60;99.90;;;;;;5033158;28;20092;-35
2023/09/27 07:14:57;;;;;;;4.10;1.30;;;18.60;99.90;;;;;;5033059;28;20052;-36
2023/09/27 07:17:25;;;;;;;3.72;1.40;;;18.70;99.90;;;;;;5032882;28;20087;-40
2023/09/27 07:19:54;;;;;;;2.00;1.10;;;18.70;99.90;;;;;;5032966;28;20029;-41
2023/09/27 07:22:19;;;;;;;1.48;1.20;;;18.70;99.90;;;;;;5032901;28;20040;-38
2023/09/27 07:24:45;;;;;;;2.30;1.52;;;18.80;99.90;;;;;;5032792;28;20025;-38
2023/09/27 07:27:11;;;;;;;2.25;1.15;;;18.80;99.90;;;;;;5032798;28;20018;-38
2023/09/27 07:29:37;;;;;;;1.73;1.25;;;18.80;99.90;;;;;;5032810;28;20025;-40
2023/09/27 07:32:04;;;;;;;2.25;1.20;;;18.90;99.90;;;;;;5033162;28;20030;-40
2023/09/27 07:34:30;;;;;;;2.30;1.13;;;18.90;99.90;;;;;;5014875;28;20033;-39
2023/09/27 07:36:56;;;;;;;2.25;1.00;;;18.90;99.90;;;;;;5032527;28;20022;-42
2023/09/27 07:39:22;;;;;;;1.70;1.10;;;19.00;99.90;;;;;;5032800;28;20033;-38
2023/09/27 07:41:49;;;;;;;1.95;1.13;;;19.00;99.90;;;;;;5032614;28;20064;-37
2023/09/27 07:44:15;;;;;;;1.90;1.08;;;19.00;99.90;;;;;;5032544;28;20475;-38
2023/09/27 07:46:41;;;;;;;2.33;1.17;;;19.10;99.90;;;;;;5032148;28;20082;-37
2023/09/27 07:49:08;;;;;;;2.95;1.30;;;19.10;99.90;;;;;;5032526;28;20045;-37
2023/09/27 07:51:34;;;;;;;2.45;1.10;;;19.10;99.90;;;;;;5032404;28;20025;-37
2023/09/27 07:54:00;;;;;;;1.27;1.02;;;19.10;99.90;;;;;;5014619;28;20060;-37
2023/09/27 07:56:26;;;;;;;1.35;1.00;;;19.20;99.90;;;;;;5032069;28;20064;-41
2023/09/27 07:58:53;;;;;;;3.58;1.15;;;19.20;99.90;;;;;;5032200;28;20040;-38
2023/09/27 08:01:20;;;;;;;1.88;1.00;;;19.20;99.90;;;;;;5031709;28;20109;-38
2023/09/27 08:03:53;;;;;;;2.42;1.05;;;19.20;99.90;;;;;;5032217;28;20475;-37
2023/09/27 08:06:20;;;;;;;1.48;1.10;;;19.30;99.90;;;;;;5031807;28;20045;-36
2023/09/27 08:08:46;;;;;;;3.00;1.20;;;19.30;99.90;;;;;;5032059;28;20079;-41
2023/09/27 08:11:11;;;;;;;1.60;1.08;;;19.30;99.90;;;;;;5031996;28;20029;-41
2023/09/27 08:13:37;;;;;;;1.77;1.17;;;19.40;99.90;;;;;;5031977;28;20028;-38
2023/09/27 08:16:06;;;;;;;1.92;1.20;;;19.40;99.90;;;;;;5031958;28;20433;-40
2023/09/27 08:18:33;;;;;;;1.75;1.20;;;19.40;99.90;;;;;;5032485;28;20034;-39
2023/09/27 08:20:59;;;;;;;1.48;1.10;;;19.40;99.90;;;;;;5032058;28;20068;-40
2023/09/27 08:23:25;;;;;;;1.38;1.10;;;19.40;99.90;;;;;;5031901;28;20023;-35
2023/09/27 08:25:52;;;;;;;1.58;1.10;;;19.50;99.90;;;;;;5032315;28;20112;-37
2023/09/27 08:28:21;;;;;;;2.38;1.00;;;19.50;99.90;;;;;;5033307;28;20032;-41
2023/09/27 08:30:48;;;;;;;1.55;1.17;;;19.50;99.90;;;;;;5014720;28;20112;-37
2023/09/27 08:33:14;;;;;;;1.45;1.05;;;19.50;99.90;;;;;;5031739;28;20029;-37
2023/09/27 08:35:40;;;;;;;1.95;1.02;;;19.60;99.90;;;;;;5031301;28;20041;-37
2023/09/27 08:38:06;;;;;;;1.83;1.33;;;19.60;99.90;;;;;;5031495;28;20065;-35
2023/09/27 08:40:31;;;;;;;1.83;1.33;;;19.60;99.90;;;;;;5031517;28;20076;-39
2023/09/27 08:42:59;;;;;;;2.17;1.40;;;19.60;99.90;;;;;;5031452;28;20029;-35
2023/09/27 08:45:26;;;;;;;1.42;1.02;;;19.60;99.90;;;;;;5031274;28;20033;-37
2023/09/27 08:47:54;;;;;;;4.47;1.00;;;19.60;99.90;;;;;;5031495;28;20395;-37
2023/09/27 08:50:20;;;;;;;2.50;1.17;;;19.60;99.90;;;;;;5031373;28;20018;-37
2023/09/27 08:52:47;;;;;;;1.60;0.90;;;19.70;99.90;;;;;;5031409;28;20029;-35
2023/09/27 08:55:14;;;;;;;1.38;1.10;;;19.70;99.90;;;;;;5031147;28;20021;-37
2023/09/27 08:57:47;;;;;;;1.83;1.10;;;19.70;99.90;;;;;;5031341;28;20060;-38
2023/09/27 09:00:19;;;;;;;1.50;0.93;;;19.80;99.90;;;;;;5031283;28;20033;-38
2023/09/27 09:02:56;;;;;;;1.73;1.02;;;19.80;99.90;;;;;;5031277;28;20041;-36
2023/09/27 09:05:23;;;;;;;1.88;1.10;;;19.80;99.90;;;;;;5031540;28;20021;-38
2023/09/27 09:07:50;;;;;;;1.73;1.10;;;19.80;99.90;;;;;;5031077;28;20026;-39
2023/09/27 09:10:16;;;;;;;3.42;1.30;;;19.80;99.90;;;;;;5031175;28;20105;-37
2023/09/27 09:12:43;;;;;;;1.50;1.00;;;19.90;99.90;;;;;;5032468;28;20037;-37
2023/09/27 09:15:27;;;;;;;1.40;0.88;;;19.80;99.90;;;;;;5035103;28;20100;-41
2023/09/27 09:17:57;;;;;;;1.52;1.10;;;19.90;99.90;;;;;;5035319;28;20386;-39
2023/09/27 09:20:32;;;;;;;1.83;1.02;;;19.90;99.90;;;;;;5035068;28;20025;-35
2023/09/27 09:23:03;;;;;;;1.17;1.08;;;19.90;99.90;;;;;;5035566;28;20022;-37
2023/09/27 09:25:29;;;;;;;1.30;0.98;;;19.90;99.90;;;;;;5035155;28;20027;-37
2023/09/27 09:28:07;;;;;;;2.42;1.15;;;20.00;99.90;;;;;;5035201;28;20425;-37
2023/09/27 09:30:41;;;;;;;1.20;0.93;;;20.00;99.90;;;;;;5017302;28;20025;-39
2023/09/27 09:33:20;;;;;;;1.50;1.00;;;20.00;99.90;;;;;;5017427;28;20064;-37
2023/09/27 09:35:46;;;;;;;1.50;1.10;;;20.10;99.90;;;;;;5034736;28;20026;-39
2023/09/27 09:38:14;;;;;;;1.73;1.08;;;20.10;99.90;;;;;;5034901;28;20056;-37
2023/09/27 09:40:53;;;;;;;1.88;1.10;;;20.10;99.90;;;;;;5034899;28;20052;-37
2023/09/27 09:43:38;;;;;;;1.55;1.10;;;20.10;99.90;;;;;;5035379;28;20072;-40
2023/09/27 09:46:10;;;;;;;2.05;1.05;;;20.10;99.90;;;;;;5034949;28;20485;-37
2023/09/27 09:48:38;;;;;;;1.48;0.98;;;20.20;99.90;;;;;;5034761;28;20108;-43
2023/09/27 09:51:06;;;;;;;1.30;1.08;;;20.20;99.90;;;;;;5036476;28;20029;-39
2023/09/27 09:53:39;;;;;;;2.03;1.20;;;20.20;99.90;;;;;;5034458;28;20033;-42
2023/09/27 09:56:06;;;;;;;2.22;1.10;;;20.20;99.90;;;;;;5034340;28;20032;-37
2023/09/27 09:58:53;;;;;;;2.08;1.20;;;20.20;99.90;;;;;;5034453;28;20051;-39
2023/09/27 10:01:21;;;;;;;1.92;1.10;;;20.30;99.90;;;;;;5034693;28;20036;-37
2023/09/27 10:03:50;;;;;;;1.40;0.98;;;20.30;99.90;;;;;;5034530;28;20047;-39
2023/09/27 10:06:20;;;;;;;1.83;1.20;;;20.30;99.90;;;;;;5034020;28;20025;-37
2023/09/27 10:08:47;;;;;;;1.95;1.10;;;20.30;99.90;;;;;;5034363;28;20022;-37
2023/09/27 10:11:14;;;;;;;2.20;1.10;;;20.30;99.90;;;;;;5034236;28;20028;-37
2023/09/27 10:13:41;;;;;;;1.25;0.90;;;20.30;99.90;;;;;;5034324;28;20037;-35
2023/09/27 10:16:08;;;;;;;2.08;1.10;;;20.40;99.90;;;;;;5033978;28;20030;-37
2023/09/27 10:18:39;;;;;;;2.55;1.20;;;20.40;99.90;;;;;;5033929;28;20025;-37
2023/09/27 10:21:07;;;;;;;1.35;1.05;;;20.40;99.90;;;;;;5034865;28;20391;-41
2023/09/27 10:23:45;;;;;;;4.00;1.75;;;20.40;99.90;;;;;;5033814;28;20080;-33
2023/09/27 10:26:31;;;;;;;11.27;1.95;;;20.40;99.90;;;;;;5033799;28;20022;-34
2023/09/27 10:31:34;;;;;;;7.60;1.60;;;20.70;99.90;;;;;;5034150;28;20042;-34
2023/09/27 10:33:59;;;;;;;4.97;1.50;;;20.80;99.90;;;;;;5034074;28;20260;-36
2023/09/27 10:36:25;;;;;;;6.53;1.70;;;20.80;99.90;;;;;;5033639;28;20471;-38
2023/09/27 10:38:50;;;;;;;3.70;1.60;;;20.90;99.90;;;;;;5034286;28;20025;-36
2023/09/27 10:41:38;;;;;;;4.45;1.60;;;21.00;99.90;;;;;;5033737;28;20078;-35
2023/09/27 10:44:04;;;;;;;3.83;1.42;;;21.00;99.90;;;;;;5033714;28;20394;-35
2023/09/27 10:46:47;;;;;;;2.83;1.65;;;21.00;99.90;;;;;;5033356;28;20033;-40
2023/09/27 10:49:20;;;;;;;3.17;1.67;;;21.00;99.90;;;;;;5033888;28;20053;-40
2023/09/27 10:51:45;;;;;;;4.13;1.83;;;21.00;99.90;;;;;;5033911;28;20052;-38
2023/09/27 10:54:11;;;;;;;3.38;1.80;;;21.10;99.90;;;;;;5033337;28;20060;-41
2023/09/27 10:56:41;;;;;;;4.78;1.60;;;21.10;99.90;;;;;;5033265;28;20029;-37
2023/09/27 10:59:07;;;;;;;2.70;1.70;;;21.10;99.90;;;;;;5033405;28;20026;-36
2023/09/27 11:01:33;;;;;;;2.78;1.38;;;21.10;99.90;;;;;;5033383;28;20498;-35
2023/09/27 11:03:59;;;;;;;3.72;1.85;;;21.10;99.90;;;;;;5033248;28;20033;-42
2023/09/27 11:06:25;;;;;;;2.78;1.27;;;21.10;99.90;;;;;;5033140;28;20152;-36
2023/09/27 11:08:51;;;;;;;2.30;1.30;;;21.20;99.90;;;;;;5033245;28;20481;-38
2023/09/27 11:11:16;;;;;;;1.85;1.20;;;21.20;99.90;;;;;;5033194;28;20021;-37
2023/09/27 11:13:43;;;;;;;2.03;1.40;;;21.20;99.90;;;;;;5033140;28;20025;-40
2023/09/27 11:16:14;;;;;;;3.40;1.42;;;21.20;99.90;;;;;;5032837;28;20045;-34
2023/09/27 11:18:48;;;;;;;2.63;1.35;;;21.20;99.90;;;;;;5033069;28;20025;-34
2023/09/27 11:21:15;;;;;;;3.03;1.45;;;21.20;99.90;;;;;;5032957;28;20479;-46
2023/09/27 11:23:57;;;;;;;2.40;1.60;;;21.20;99.90;;;;;;5033098;28;20037;-40
2023/09/27 11:26:24;;;;;;;2.13;1.42;;;21.20;99.90;;;;;;5032665;28;20105;-35
2023/09/27 11:29:04;;;;;;;2.65;1.50;;;21.20;99.90;;;;;;5032876;28;20029;-34
2023/09/27 11:31:35;;;;;;;3.13;1.45;;;21.20;99.90;;;;;;5033236;28;20041;-45
2023/09/27 11:34:14;;;;;;;2.47;1.30;;;21.20;99.90;;;;;;5032672;28;20478;-38
2023/09/27 11:36:54;;;;;;;2.63;1.40;;;21.20;99.90;;;;;;5031847;28;20030;-34
2023/09/27 11:39:40;;;;;;;2.35;1.40;;;21.20;99.90;;;;;;5032711;28;20028;-35
2023/09/27 11:42:06;;;;;;;2.80;1.48;;;21.20;99.90;;;;;;5031517;28;20025;-37
2023/09/27 11:44:31;;;;;;;2.40;1.23;;;21.30;99.90;;;;;;5032600;28;20036;-38
2023/09/27 11:47:05;;;;;;;3.45;1.38;;;21.30;99.90;;;;;;5032342;28;20033;-38
2023/09/27 11:49:31;;;;;;;2.10;1.48;;;21.30;99.90;;;;;;5032479;28;20091;-36
2023/09/27 11:51:56;;;;;;;1.52;1.25;;;21.30;99.90;;;;;;5032499;28;20173;-41
2023/09/27 11:54:22;;;;;;;3.47;1.65;;;21.30;99.90;;;;;;5032236;28;20116;-35
2023/09/27 11:56:48;;;;;;;2.78;1.20;;;21.30;99.90;;;;;;5032020;28;20025;-39
2023/09/27 11:59:13;;;;;;;2.35;1.20;;;21.30;99.90;;;;;;5032220;28;20033;-36
2023/09/27 12:01:39;;;;;;;3.05;1.38;;;21.30;99.90;;;;;;5032185;28;20056;-37
2023/09/27 12:04:05;;;;;;;6.30;1.20;;;21.40;99.90;;;;;;5032092;28;20025;-37
2023/09/27 12:06:32;;;;;;;11.43;2.20;;;21.60;99.90;;;;;;5031899;28;20079;-42
2023/09/27 12:08:59;;;;;;;19.05;2.10;;;21.70;99.90;;;;;;5032018;28;20022;-36
2023/09/27 12:11:25;;;;;;;8.68;1.73;;;21.80;99.90;;;;;;5032018;28;20037;-38
2023/09/27 12:13:51;;;;;;;13.93;1.92;;;21.90;99.90;;;;;;5031964;28;20037;-36
2023/09/27 12:16:20;;;;;;;10.98;2.10;;;22.00;99.90;;;;;;5031658;28;20391;-36
2023/09/27 12:18:46;;;;;;;5.18;1.65;;;22.00;99.90;;;;;;5032148;28;20018;-41
2023/09/27 12:21:13;;;;;;;3.75;1.42;;;22.00;99.90;;;;;;5032032;28;20032;-35
2023/09/27 12:23:39;;;;;;;9.85;1.60;;;21.90;99.90;;;;;;5036173;28;20032;-35
2023/09/27 12:26:04;;;;;;;2.78;1.27;;;21.90;99.90;;;;;;5036518;28;20025;-36
2023/09/27 12:28:30;;;;;;;6.93;1.70;;;21.80;99.90;;;;;;5032848;28;20040;-35
2023/09/27 12:30:55;;;;;;;3.08;1.30;;;21.70;99.90;;;;;;5031767;28;20017;-36
2023/09/27 12:33:21;;;;;;;4.97;1.52;;;21.70;99.90;;;;;;5031702;28;20030;-35
2023/09/27 12:35:49;;;;;;;4.05;1.30;;;21.70;99.90;;;;;;5031765;28;20112;-37
2023/09/27 12:38:15;;;;;;;3.90;1.30;;;21.60;99.90;;;;;;5031358;28;20025;-36
2023/09/27 12:40:41;;;;;;;6.55;1.80;;;21.60;99.90;;;;;;5031689;28;20163;-33
2023/09/27 12:43:07;;;;;;;2.72;1.40;;;21.60;99.90;;;;;;5031528;28;20021;-33
2023/09/27 12:45:33;;;;;;;4.95;1.42;;;21.60;99.90;;;;;;5031109;28;20025;-33
2023/09/27 12:47:59;;;;;;;3.25;1.20;;;21.60;99.90;;;;;;5031390;28;20033;-36